Time;durP1;ratioP1;P1;durP2;ratioP2;P2;SDS_P1;SDS_P2;PMS_P1;PMS_P2;Temp;Humidity;BMP_temperature;BMP_pressure;BME280_temperature;BME280_humidity;BME280_pressure;Samples;Min_cycle;Max_cycle;Signal;HPM_P1;HPM_P2
2022/02/04 00:03:13;;;;;;;4.93;3.80;;;;;;;;;;5018121;28;20542;-60
2022/02/04 00:27:52;;;;;;;4.45;4.05;;;;;;;;;;5016964;28;20399;-61
2022/02/04 00:30:24;;;;;;;4.85;3.60;;;;;;;;;;5020627;28;20033;-60
2022/02/04 00:32:51;;;;;;;4.20;3.80;;;;;;;;;;5017004;28;20638;-61
2022/02/04 00:35:35;;;;;;;4.30;3.90;;;;;;;;;;5019897;28;20151;-61
2022/02/04 00:38:12;;;;;;;5.15;4.25;;;;;;;;;;5020980;28;20026;-60
2022/02/04 00:40:42;;;;;;;3.92;3.63;;;;;;;;;;5015920;28;20037;-60
2022/02/04 00:43:11;;;;;;;4.35;3.72;;;;;;;;;;5022504;28;20116;-60
2022/02/04 00:46:24;;;;;;;3.72;3.42;;;;;;;;;;5020694;28;20030;-60
2022/02/04 00:51:53;;;;;;;4.15;3.75;;;;;;;;;;5022581;28;20030;-60
2022/02/04 00:54:21;;;;;;;4.28;3.38;;;;;;;;;;5022726;28;20041;-58
2022/02/04 00:57:06;;;;;;;4.45;4.03;;;;;;;;;;5022581;28;20061;-60
2022/02/04 01:26:41;;;;;;;4.68;4.28;;;;;;;;;;5021958;28;20071;-60
2022/02/04 01:29:08;;;;;;;4.55;4.15;;;;;;;;;;5023327;28;20029;-60
2022/02/04 01:31:33;;;;;;;3.63;3.33;;;;;;;;;;5021271;28;20052;-60
2022/02/04 01:33:59;;;;;;;4.00;3.60;;;;;;;;;;5020452;28;20455;-60
2022/02/04 01:36:24;;;;;;;3.63;3.30;;;;;;;;;;5020814;28;20738;-60
2022/02/04 01:38:49;;;;;;;4.78;4.38;;;;;;;;;;5020790;28;20021;-60
2022/02/04 01:41:15;;;;;;;4.50;4.10;;;;;;;;;;5020587;28;20064;-60
2022/02/04 01:43:43;;;;;;;6.32;4.22;;;;;;;;;;5017656;28;20041;-60
2022/02/04 01:46:10;;;;;;;4.30;3.95;;;;;;;;;;5020267;28;20064;-60
2022/02/04 01:48:39;;;;;;;4.05;3.65;;;;;;;;;;5019459;28;20080;-60
2022/02/04 01:51:06;;;;;;;6.20;3.78;;;;;;;;;;5019238;28;20053;-60
2022/02/04 01:53:32;;;;;;;4.28;3.88;;;;;;;;;;5018886;28;20033;-60
2022/02/04 01:56:01;;;;;;;5.00;4.50;;;;;;;;;;5020243;28;20030;-60
2022/02/04 01:58:26;;;;;;;6.30;4.65;;;;;;;;;;5021232;28;20052;-60
2022/02/04 02:00:52;;;;;;;5.28;4.40;;;;;;;;;;5021313;28;20046;-60
2022/02/04 02:03:19;;;;;;;4.13;3.45;;;;;;;;;;5023311;28;20045;-59
2022/02/04 02:05:45;;;;;;;5.38;4.05;;;;;;;;;;5019618;28;20033;-60
2022/02/04 02:08:13;;;;;;;4.05;3.65;;;;;;;;;;5021433;28;20037;-60
2022/02/04 02:10:39;;;;;;;3.45;3.15;;;;;;;;;;5019040;28;20049;-60
2022/02/04 02:16:16;;;;;;;4.55;3.97;;;;;;;;;;5018493;28;20045;-60
2022/02/04 02:50:44;;;;;;;4.18;3.78;;;;;;;;;;5021700;28;20038;-59
2022/02/04 02:58:45;;;;;;;4.25;3.90;;;;;;;;;;5020369;28;20033;-61
2022/02/04 03:01:10;;;;;;;4.20;3.75;;;;;;;;;;5021740;28;20033;-61
2022/02/04 03:03:36;;;;;;;3.70;3.40;;;;;;;;;;5020069;28;20083;-60
2022/02/04 03:06:01;;;;;;;3.75;3.45;;;;;;;;;;5022412;28;20463;-60
2022/02/04 03:08:27;;;;;;;3.78;3.42;;;;;;;;;;5019193;28;20037;-60
2022/02/04 03:10:55;;;;;;;3.70;3.38;;;;;;;;;;5017285;28;20029;-60
2022/02/04 03:13:22;;;;;;;3.92;3.47;;;;;;;;;;5017934;28;20052;-60
2022/02/04 03:15:56;;;;;;;3.70;3.40;;;;;;;;;;5020977;28;20026;-60
2022/02/04 03:18:23;;;;;;;4.50;4.10;;;;;;;;;;5017578;28;20076;-61
2022/02/04 03:20:52;;;;;;;4.70;4.07;;;;;;;;;;5019953;28;20034;-61
2022/02/04 03:23:19;;;;;;;3.90;3.58;;;;;;;;;;5018206;28;20029;-61
2022/02/04 03:25:50;;;;;;;4.35;3.95;;;;;;;;;;5019164;28;20060;-61
2022/02/04 03:28:21;;;;;;;4.50;4.10;;;;;;;;;;5017240;28;20040;-61
2022/02/04 03:30:47;;;;;;;;;;;;;;;;;;5017788;28;20049;-61
2022/02/04 03:33:13;;;;;;;3.83;3.42;;;;;;;;;;5022153;28;19932;-61
2022/02/04 03:35:38;;;;;;;4.55;3.58;;;;;;;;;;5021219;28;20460;-61
2022/02/04 03:38:04;;;;;;;4.45;4.05;;;;;;;;;;5019996;28;20121;-61
2022/02/04 03:40:29;;;;;;;4.30;3.88;;;;;;;;;;5019526;28;20056;-61
2022/02/04 03:42:55;;;;;;;3.80;3.50;;;;;;;;;;5021044;28;20029;-61
2022/02/04 03:45:22;;;;;;;5.47;3.78;;;;;;;;;;5021252;28;20091;-61
2022/02/04 03:47:48;;;;;;;4.70;3.95;;;;;;;;;;5021008;28;20052;-61
2022/02/04 03:50:14;;;;;;;4.05;3.47;;;;;;;;;;5018826;28;20937;-61
2022/02/04 03:52:40;;;;;;;4.63;3.38;;;;;;;;;;5020831;28;20033;-61
2022/02/04 03:55:07;;;;;;;3.38;3.08;;;;;;;;;;5020828;28;20026;-61
2022/02/04 03:57:33;;;;;;;4.55;3.85;;;;;;;;;;5016828;28;20710;-61
2022/02/04 03:59:58;;;;;;;3.88;3.47;;;;;;;;;;5018150;28;20118;-61
2022/02/04 04:02:24;;;;;;;5.03;3.72;;;;;;;;;;5019153;28;20042;-60
2022/02/04 04:04:49;;;;;;;4.13;3.72;;;;;;;;;;5019446;28;20364;-60
2022/02/04 04:07:15;;;;;;;3.83;3.45;;;;;;;;;;5017714;28;20050;-60
2022/02/04 04:09:47;;;;;;;4.45;4.05;;;;;;;;;;5016198;28;20033;-61
2022/02/04 04:12:12;;;;;;;3.50;3.20;;;;;;;;;;5018350;28;20041;-60
2022/02/04 04:14:38;;;;;;;3.80;3.47;;;;;;;;;;5018688;28;20486;-60
2022/02/04 04:17:03;;;;;;;4.40;4.00;;;;;;;;;;5019576;28;20037;-60
2022/02/04 04:19:28;;;;;;;4.03;3.67;;;;;;;;;;5018609;28;20634;-60
2022/02/04 04:21:54;;;;;;;4.75;4.22;;;;;;;;;;5016192;28;20040;-60
2022/02/04 04:24:19;;;;;;;3.95;3.65;;;;;;;;;;5017905;28;20061;-60
2022/02/04 04:26:44;;;;;;;3.95;3.55;;;;;;;;;;5016385;28;20029;-60
2022/02/04 04:29:10;;;;;;;5.93;4.10;;;;;;;;;;5018311;28;20113;-61
2022/02/04 04:31:36;;;;;;;4.03;3.72;;;;;;;;;;5019227;28;20094;-61
2022/02/04 04:34:02;;;;;;;3.83;3.53;;;;;;;;;;5018462;28;20037;-61
2022/02/04 04:36:28;;;;;;;4.20;3.80;;;;;;;;;;5018661;28;20521;-61
2022/02/04 04:39:04;;;;;;;4.38;3.97;;;;;;;;;;5018453;28;20114;-61
2022/02/04 04:41:44;;;;;;;4.53;4.07;;;;;;;;;;5018350;28;20101;-61
2022/02/04 05:29:39;;;;;;;5.57;4.32;;;;;;;;;;5023354;28;20391;-62
2022/02/04 05:32:06;;;;;;;5.45;4.97;;;;;;;;;;5022832;28;20470;-62
2022/02/04 05:34:32;;;;;;;4.25;3.85;;;;;;;;;;5024341;28;20034;-62
2022/02/04 05:37:06;;;;;;;7.65;5.05;;;;;;;;;;5019672;28;20069;-62
2022/02/04 05:39:39;;;;;;;5.63;5.13;;;;;;;;;;5025041;28;20043;-63
2022/02/04 05:42:07;;;;;;;5.80;5.20;;;;;;;;;;5020060;28;20056;-61
2022/02/04 05:44:38;;;;;;;4.72;4.32;;;;;;;;;;5022536;28;20431;-61
2022/02/04 05:47:11;;;;;;;6.90;4.70;;;;;;;;;;5017736;28;20062;-61
2022/02/04 05:49:41;;;;;;;5.65;4.88;;;;;;;;;;5022525;28;20109;-59
2022/02/04 05:52:16;;;;;;;5.82;4.97;;;;;;;;;;5021404;28;20068;-61
2022/02/04 05:57:23;;;;;;;5.45;4.95;;;;;;;;;;5018545;28;20363;-61
2022/02/04 06:02:47;;;;;;;4.53;4.10;;;;;;;;;;5021575;28;20497;-61
2022/02/04 06:05:47;;;;;;;5.88;4.40;;;;;;;;;;5019575;28;20041;-61
2022/02/04 06:23:39;;;;;;;5.72;5.22;;;;;;;;;;5020807;28;20048;-59
2022/02/04 06:26:05;;;;;;;4.97;4.47;;;;;;;;;;5019448;28;20585;-59
2022/02/04 06:28:30;;;;;;;4.75;4.22;;;;;;;;;;5020202;28;20046;-59
2022/02/04 06:30:56;;;;;;;10.60;4.85;;;;;;;;;;5020271;28;20056;-61
2022/02/04 06:33:21;;;;;;;16.33;4.60;;;;;;;;;;5019369;28;20128;-61
2022/02/04 06:35:47;;;;;;;5.25;4.70;;;;;;;;;;5016981;28;20083;-62
2022/02/04 06:38:12;;;;;;;4.50;4.10;;;;;;;;;;5020554;28;20091;-62
2022/02/04 06:40:37;;;;;;;5.88;5.38;;;;;;;;;;5019094;28;20423;-62
2022/02/04 06:43:03;;;;;;;6.88;4.63;;;;;;;;;;5021290;28;20113;-62
2022/02/04 06:45:28;;;;;;;5.13;4.72;;;;;;;;;;5014851;28;20081;-62
2022/02/04 06:47:53;;;;;;;5.57;4.13;;;;;;;;;;5016930;28;20042;-62
2022/02/04 06:50:20;;;;;;;5.50;4.72;;;;;;;;;;5014366;28;20041;-62
2022/02/04 06:52:45;;;;;;;5.38;4.90;;;;;;;;;;5021138;28;20029;-61
2022/02/04 06:55:11;;;;;;;4.80;4.40;;;;;;;;;;5018567;28;20026;-64
2022/02/04 06:57:37;;;;;;;5.43;4.93;;;;;;;;;;5020431;28;20037;-61
2022/02/04 07:00:06;;;;;;;4.90;4.50;;;;;;;;;;5021488;28;20034;-62
2022/02/04 07:02:32;;;;;;;7.47;5.18;;;;;;;;;;5016837;28;20033;-62
2022/02/04 07:04:57;;;;;;;8.30;5.20;;;;;;;;;;5019109;28;20380;-61
2022/02/04 07:07:23;;;;;;;8.43;5.05;;;;;;;;;;5020793;28;20367;-62
2022/02/04 07:09:57;;;;;;;4.55;4.15;;;;;;;;;;5019507;28;20033;-62
2022/02/04 07:12:36;;;;;;;5.30;4.53;;;;;;;;;;5016703;28;20115;-61
2022/02/04 07:20:12;;;;;;;4.35;3.95;;;;;;;;;;5019635;28;20040;-61
2022/02/04 07:22:39;;;;;;;5.00;4.50;;;;;;;;;;5018547;28;20034;-61
2022/02/04 07:25:06;;;;;;;4.68;4.28;;;;;;;;;;5019247;28;20095;-61
2022/02/04 07:27:34;;;;;;;6.20;3.60;;;;;;;;;;5021993;28;20083;-61
2022/02/04 07:30:01;;;;;;;4.55;4.15;;;;;;;;;;5018577;28;20029;-61
2022/02/04 07:32:35;;;;;;;5.15;4.25;;;;;;;;;;5017801;28;20452;-61
2022/02/04 07:43:09;;;;;;;5.80;5.07;;;;;;;;;;5020922;28;20043;-60
2022/02/04 07:45:35;;;;;;;4.82;4.43;;;;;;;;;;5019613;28;20128;-61
2022/02/04 07:48:01;;;;;;;4.88;4.43;;;;;;;;;;5020861;28;20077;-61
2022/02/04 07:50:27;;;;;;;4.88;4.43;;;;;;;;;;5018047;28;20476;-60
2022/02/04 07:52:54;;;;;;;4.70;4.20;;;;;;;;;;5019949;28;20033;-60
2022/02/04 07:55:21;;;;;;;5.40;4.57;;;;;;;;;;5019700;28;20507;-59
2022/02/04 07:57:46;;;;;;;4.68;4.28;;;;;;;;;;5018126;28;20052;-59
2022/02/04 08:00:17;;;;;;;5.82;5.32;;;;;;;;;;5019509;28;20072;-59
2022/02/04 08:02:46;;;;;;;4.65;4.22;;;;;;;;;;5016369;28;20120;-59
2022/02/04 08:05:15;;;;;;;4.30;3.90;;;;;;;;;;5017142;28;20349;-59
2022/02/04 08:08:14;;;;;;;4.03;3.60;;;;;;;;;;5017826;28;20065;-59
2022/02/04 08:10:37;;;;;;;5.10;4.55;;;;;;;;;;5015257;28;20044;-60
2022/02/04 08:18:26;;;;;;;;;;;;;;;;;;5017918;28;20539;-61
2022/02/04 08:31:29;;;;;;;4.57;4.18;;;;;;;;;;5017820;28;20037;-60
2022/02/04 08:52:45;;;;;;;3.92;3.60;;;;;;;;;;5015258;28;20455;-60
2022/02/04 08:55:18;;;;;;;5.10;4.60;;;;;;;;;;5014674;28;20455;-61
2022/02/04 09:00:41;;;;;;;6.88;4.60;;;;;;;;;;5015139;28;20106;-60
2022/02/04 09:03:15;;;;;;;4.75;4.35;;;;;;;;;;5014464;28;20045;-60
2022/02/04 09:05:43;;;;;;;4.00;3.60;;;;;;;;;;5021341;28;20030;-61
2022/02/04 09:08:29;;;;;;;4.55;4.15;;;;;;;;;;5019814;28;20357;-60
2022/02/04 09:11:01;;;;;;;4.38;3.97;;;;;;;;;;5017670;28;20084;-60
2022/02/04 09:19:03;;;;;;;4.70;4.30;;;;;;;;;;5019328;28;20086;-60
2022/02/04 09:24:11;;;;;;;4.93;4.43;;;;;;;;;;5019085;28;20378;-60
2022/02/04 09:26:38;;;;;;;4.80;4.40;;;;;;;;;;5019055;28;20030;-60
2022/02/04 09:29:04;;;;;;;4.25;3.85;;;;;;;;;;5019483;28;20091;-59
2022/02/04 09:31:29;;;;;;;4.47;4.05;;;;;;;;;;5019678;28;20467;-59
2022/02/04 09:33:54;;;;;;;4.93;4.47;;;;;;;;;;5019997;28;20037;-59
2022/02/04 09:36:20;;;;;;;4.43;4.03;;;;;;;;;;5018730;28;20034;-59
2022/02/04 09:38:45;;;;;;;4.00;3.70;;;;;;;;;;5017808;28;20045;-59
2022/02/04 09:41:11;;;;;;;3.85;3.55;;;;;;;;;;5017507;28;20041;-60
2022/02/04 09:43:37;;;;;;;4.60;3.88;;;;;;;;;;5019083;28;20029;-60
2022/02/04 09:46:03;;;;;;;3.95;3.60;;;;;;;;;;5020223;28;20030;-60
2022/02/04 09:48:29;;;;;;;4.60;4.15;;;;;;;;;;5018029;28;20033;-60
2022/02/04 09:50:55;;;;;;;4.80;4.40;;;;;;;;;;5018615;28;20641;-60
2022/02/04 10:13:31;;;;;;;4.35;3.95;;;;;;;;;;5020059;28;20621;-63
2022/02/04 10:16:18;;;;;;;5.15;4.53;;;;;;;;;;5016856;28;20041;-61
2022/02/04 10:18:52;;;;;;;4.57;4.18;;;;;;;;;;5015792;28;20025;-62
2022/02/04 10:21:17;;;;;;;4.15;3.75;;;;;;;;;;5019322;28;20037;-62
2022/02/04 10:24:03;;;;;;;4.57;4.18;;;;;;;;;;5018142;28;20034;-60
2022/02/04 10:26:28;;;;;;;3.95;3.65;;;;;;;;;;5018086;28;20053;-60
2022/02/04 10:28:55;;;;;;;4.20;3.80;;;;;;;;;;5016139;28;20040;-62
2022/02/04 10:31:29;;;;;;;4.15;3.75;;;;;;;;;;5018123;28;20056;-62
2022/02/04 10:34:06;;;;;;;5.25;4.75;;;;;;;;;;5017813;28;20033;-62
2022/02/04 10:36:31;;;;;;;8.30;4.50;;;;;;;;;;5026185;28;20364;-61
2022/02/04 10:38:57;;;;;;;4.85;4.45;;;;;;;;;;5020198;28;20018;-62
2022/02/04 10:41:29;;;;;;;4.90;4.47;;;;;;;;;;5018139;28;20723;-62
2022/02/04 10:44:09;;;;;;;4.72;4.32;;;;;;;;;;5017833;28;20038;-62
2022/02/04 10:46:46;;;;;;;4.90;4.25;;;;;;;;;;5017863;28;20088;-61
2022/02/04 11:02:31;;;;;;;4.10;3.75;;;;;;;;;;5016194;28;20065;-59
2022/02/04 11:05:08;;;;;;;5.15;4.65;;;;;;;;;;5017051;28;20038;-59
2022/02/04 11:08:03;;;;;;;4.97;3.85;;;;;;;;;;5015594;28;20041;-59
2022/02/04 11:35:10;;;;;;;4.07;3.58;;;;;;;;;;5016060;28;20120;-62
2022/02/04 11:54:54;;;;;;;3.97;3.58;;;;;;;;;;5015694;28;20781;-61
2022/02/04 11:57:26;;;;;;;4.15;3.75;;;;;;;;;;5015420;28;20073;-62
2022/02/04 11:59:58;;;;;;;4.28;3.78;;;;;;;;;;5018167;28;20479;-62
2022/02/04 12:02:30;;;;;;;6.20;4.03;;;;;;;;;;5015275;28;20081;-61
2022/02/04 12:07:38;;;;;;;3.85;3.55;;;;;;;;;;5016017;28;20029;-62
2022/02/04 12:10:27;;;;;;;4.10;3.75;;;;;;;;;;5015930;28;20033;-58
2022/02/04 12:12:52;;;;;;;3.45;3.15;;;;;;;;;;5011176;28;20049;-62
2022/02/04 12:15:34;;;;;;;4.45;4.05;;;;;;;;;;5016270;28;20033;-62
2022/02/04 12:18:04;;;;;;;3.80;3.40;;;;;;;;;;5015839;28;20118;-59
2022/02/04 12:20:47;;;;;;;4.63;4.22;;;;;;;;;;5016090;28;20033;-59
2022/02/04 12:23:28;;;;;;;4.05;3.75;;;;;;;;;;5015801;28;20403;-58
2022/02/04 12:25:56;;;;;;;4.10;3.70;;;;;;;;;;5017695;28;20038;-59
2022/02/04 12:28:44;;;;;;;3.50;3.17;;;;;;;;;;5016492;28;20145;-60
2022/02/04 12:31:27;;;;;;;4.10;3.80;;;;;;;;;;5017784;28;20029;-59
2022/02/04 12:33:55;;;;;;;4.00;3.60;;;;;;;;;;5015942;28;20112;-60
2022/02/04 12:36:26;;;;;;;4.15;3.83;;;;;;;;;;5014128;28;20475;-60
2022/02/04 12:38:55;;;;;;;4.10;3.70;;;;;;;;;;5016797;28;20446;-59
2022/02/04 12:41:30;;;;;;;4.18;3.78;;;;;;;;;;5021248;28;20037;-59
2022/02/04 12:43:58;;;;;;;3.53;3.22;;;;;;;;;;5020626;28;20092;-59
2022/02/04 12:46:26;;;;;;;3.50;3.20;;;;;;;;;;5020468;28;20030;-61
2022/02/04 12:48:58;;;;;;;3.90;3.60;;;;;;;;;;5023193;28;20097;-62
2022/02/04 12:55:05;;;;;;;3.55;3.25;;;;;;;;;;5020298;28;20131;-62
2022/02/04 13:03:06;;;;;;;3.72;3.42;;;;;;;;;;5020416;28;20403;-62
2022/02/04 13:11:00;;;;;;;3.72;3.42;;;;;;;;;;5020486;28;20030;-61
2022/02/04 13:13:29;;;;;;;3.80;3.50;;;;;;;;;;5019905;28;20029;-61
2022/02/04 13:15:55;;;;;;;4.18;3.88;;;;;;;;;;5018784;28;20040;-61
2022/02/04 13:18:20;;;;;;;4.00;3.70;;;;;;;;;;5020617;28;20045;-61
2022/02/04 13:20:55;;;;;;;4.03;3.72;;;;;;;;;;5019980;28;20025;-59
2022/02/04 13:23:23;;;;;;;4.05;3.75;;;;;;;;;;5021735;28;20042;-59
2022/02/04 13:25:51;;;;;;;4.53;4.13;;;;;;;;;;5019126;28;20045;-59
2022/02/04 13:28:22;;;;;;;4.13;3.72;;;;;;;;;;5018504;28;20040;-62
2022/02/04 13:31:00;;;;;;;3.72;3.42;;;;;;;;;;5018625;28;20325;-62
2022/02/04 13:33:28;;;;;;;4.07;3.78;;;;;;;;;;5001593;28;20379;-62
2022/02/04 13:36:27;;;;;;;4.13;3.72;;;;;;;;;;5016974;28;20419;-61
2022/02/04 13:39:12;;;;;;;3.70;3.40;;;;;;;;;;5023948;28;20037;-62
2022/02/04 13:47:44;;;;;;;3.60;3.30;;;;;;;;;;5018529;28;20048;-59
2022/02/04 13:56:13;;;;;;;3.67;3.38;;;;;;;;;;5019332;28;20022;-58
2022/02/04 13:58:25;;;;;;;3.50;3.20;;;;;;;;;;5018836;28;20455;-59
2022/02/04 14:01:22;;;;;;;3.40;3.10;;;;;;;;;;5019203;28;20037;-59
2022/02/04 14:03:48;;;;;;;3.63;3.33;;;;;;;;;;5019097;28;20071;-59
2022/02/04 14:06:20;;;;;;;3.88;3.58;;;;;;;;;;5019917;28;20592;-59
2022/02/04 14:08:52;;;;;;;3.28;2.97;;;;;;;;;;5018493;28;20033;-60
2022/02/04 14:11:38;;;;;;;3.67;3.38;;;;;;;;;;5018838;28;20745;-59
2022/02/04 14:14:26;;;;;;;3.40;3.10;;;;;;;;;;5020726;28;20033;-62
2022/02/04 14:16:54;;;;;;;3.55;3.25;;;;;;;;;;5017608;28;20026;-62
2022/02/04 14:19:20;;;;;;;3.85;3.55;;;;;;;;;;5019983;28;20095;-62
2022/02/04 14:21:45;;;;;;;5.88;4.88;;;;;;;;;;5021268;28;20033;-62
2022/02/04 14:24:12;;;;;;;4.15;3.80;;;;;;;;;;5017681;28;20683;-62
2022/02/04 14:26:43;;;;;;;3.75;3.45;;;;;;;;;;5017607;28;20037;-62
2022/02/04 14:29:16;;;;;;;3.75;3.45;;;;;;;;;;5016726;28;20034;-63
2022/02/04 14:31:49;;;;;;;3.33;3.03;;;;;;;;;;5015863;28;20558;-61
2022/02/04 14:34:42;;;;;;;3.38;3.08;;;;;;;;;;5017212;28;20045;-62
2022/02/04 14:37:09;;;;;;;3.75;3.45;;;;;;;;;;5018203;28;20448;-61
2022/02/04 14:53:25;;;;;;;3.50;3.20;;;;;;;;;;5018159;28;20033;-59
2022/02/04 15:01:22;;;;;;;3.22;2.92;;;;;;;;;;5017261;28;20041;-59
2022/02/04 15:06:38;;;;;;;3.97;3.67;;;;;;;;;;5016714;28;20034;-59
2022/02/04 15:09:07;;;;;;;3.65;3.35;;;;;;;;;;5016997;28;20040;-59
2022/02/04 15:11:35;;;;;;;3.50;3.20;;;;;;;;;;5015715;28;20087;-59
2022/02/04 15:14:05;;;;;;;3.95;3.65;;;;;;;;;;5016406;28;20029;-58
2022/02/04 15:16:31;;;;;;;4.00;3.70;;;;;;;;;;5015279;28;20036;-58
2022/02/04 15:18:56;;;;;;;3.35;3.05;;;;;;;;;;5018197;28;20026;-59
2022/02/04 15:21:23;;;;;;;3.90;3.60;;;;;;;;;;5014843;28;20868;-59
2022/02/04 15:23:52;;;;;;;3.60;3.30;;;;;;;;;;5016492;28;20474;-60
2022/02/04 15:26:20;;;;;;;3.42;3.13;;;;;;;;;;5016468;28;20045;-60
2022/02/04 15:28:55;;;;;;;3.92;3.63;;;;;;;;;;5017118;28;20156;-59
2022/02/04 15:31:29;;;;;;;3.42;3.13;;;;;;;;;;5017272;28;20029;-59
2022/02/04 15:33:55;;;;;;;3.67;3.38;;;;;;;;;;5021875;28;20432;-59
2022/02/04 15:36:27;;;;;;;3.85;3.55;;;;;;;;;;5017995;28;20072;-60
2022/02/04 15:38:53;;;;;;;3.30;3.00;;;;;;;;;;5015483;28;20096;-58
2022/02/04 15:41:21;;;;;;;3.63;3.33;;;;;;;;;;5016943;28;20025;-58
2022/02/04 15:43:51;;;;;;;4.13;3.83;;;;;;;;;;5015670;28;20041;-59
2022/02/04 15:54:34;;;;;;;3.80;3.40;;;;;;;;;;5018556;28;20125;-60
2022/02/04 16:04:50;;;;;;;3.22;2.92;;;;;;;;;;5019248;28;20060;-60
2022/02/04 16:07:17;;;;;;;4.03;3.72;;;;;;;;;;5018384;28;20029;-59
2022/02/04 16:09:46;;;;;;;3.60;3.30;;;;;;;;;;5015860;28;20022;-60
2022/02/04 16:12:22;;;;;;;3.47;3.17;;;;;;;;;;5016098;28;20053;-59
2022/02/04 16:15:04;;;;;;;3.70;3.40;;;;;;;;;;5017919;28;20252;-59
2022/02/04 16:17:34;;;;;;;3.65;3.35;;;;;;;;;;5015545;28;20479;-60
2022/02/04 16:20:21;;;;;;;3.33;3.03;;;;;;;;;;5015797;28;20037;-61
2022/02/04 16:25:40;;;;;;;3.30;3.00;;;;;;;;;;5016541;28;20087;-59
2022/02/04 16:30:51;;;;;;;3.63;3.33;;;;;;;;;;5019015;28;20502;-59
2022/02/04 16:33:16;;;;;;;6.70;3.47;;;;;;;;;;5016155;28;20116;-60
2022/02/04 16:35:42;;;;;;;3.72;3.42;;;;;;;;;;5016826;28;20029;-59
2022/02/04 16:38:09;;;;;;;3.70;3.40;;;;;;;;;;5019566;28;20108;-58
2022/02/04 16:40:41;;;;;;;3.40;3.10;;;;;;;;;;5019379;28;20514;-58
2022/02/04 16:43:08;;;;;;;3.40;3.10;;;;;;;;;;5017365;28;20060;-57
2022/02/04 16:45:33;;;;;;;3.38;3.08;;;;;;;;;;5019359;28;20037;-58
2022/02/04 16:47:59;;;;;;;3.63;3.25;;;;;;;;;;5015850;28;20214;-58
2022/02/04 16:50:25;;;;;;;3.15;2.85;;;;;;;;;;5017267;28;20145;-59
2022/02/04 16:52:52;;;;;;;3.60;3.30;;;;;;;;;;5018349;28;20104;-59
2022/02/04 16:55:19;;;;;;;3.67;3.38;;;;;;;;;;5015941;28;20121;-59
2022/02/04 16:57:47;;;;;;;4.40;4.00;;;;;;;;;;5018173;28;20045;-59
2022/02/04 17:02:47;;;;;;;3.08;2.78;;;;;;;;;;5015474;28;20036;-59
2022/02/04 17:05:14;;;;;;;3.58;3.28;;;;;;;;;;5018317;28;20119;-59
2022/02/04 17:07:39;;;;;;;3.50;3.20;;;;;;;;;;5018065;28;20040;-59
2022/02/04 17:10:08;;;;;;;3.35;3.05;;;;;;;;;;5017190;28;20041;-59
2022/02/04 17:12:41;;;;;;;3.15;2.85;;;;;;;;;;5019440;28;20030;-60
2022/02/04 17:15:08;;;;;;;4.28;3.88;;;;;;;;;;5018811;28;20065;-59
2022/02/04 17:17:34;;;;;;;3.80;3.50;;;;;;;;;;5019204;28;20095;-59
2022/02/04 17:20:04;;;;;;;4.07;3.78;;;;;;;;;;5019922;28;20045;-59
2022/02/04 17:22:32;;;;;;;3.80;3.42;;;;;;;;;;5014237;28;20461;-59
2022/02/04 17:24:57;;;;;;;3.47;3.17;;;;;;;;;;5020192;28;20447;-60
2022/02/04 17:27:22;;;;;;;3.58;3.28;;;;;;;;;;5023290;28;20040;-60
2022/02/04 17:29:48;;;;;;;3.60;3.30;;;;;;;;;;5023033;28;20032;-59
2022/02/04 17:32:13;;;;;;;3.10;2.80;;;;;;;;;;5021899;28;20124;-59
2022/02/04 17:34:39;;;;;;;3.35;3.05;;;;;;;;;;5019210;28;20047;-59
2022/02/04 17:37:04;;;;;;;3.13;2.83;;;;;;;;;;5022525;28;20037;-59
2022/02/04 17:39:30;;;;;;;3.42;3.13;;;;;;;;;;5023560;28;20041;-59
2022/02/04 17:42:01;;;;;;;3.95;3.65;;;;;;;;;;5021860;28;20462;-59
2022/02/04 17:44:26;;;;;;;3.78;3.35;;;;;;;;;;5020389;28;20095;-59
2022/02/04 17:46:52;;;;;;;3.85;3.55;;;;;;;;;;5018787;28;20651;-60
2022/02/04 17:51:58;;;;;;;3.58;3.28;;;;;;;;;;5022342;28;20042;-59
2022/02/04 17:55:09;;;;;;;2.90;2.60;;;;;;;;;;5020836;28;20044;-58
2022/02/04 17:57:20;;;;;;;3.63;3.33;;;;;;;;;;5017215;28;20068;-58
2022/02/04 18:02:26;;;;;;;3.00;2.70;;;;;;;;;;5021245;28;20037;-59
2022/02/04 18:05:25;;;;;;;3.78;3.47;;;;;;;;;;5024147;28;20032;-59
2022/02/04 18:07:50;;;;;;;3.40;3.10;;;;;;;;;;5022884;28;20108;-59
2022/02/04 18:10:15;;;;;;;3.45;3.15;;;;;;;;;;5021018;28;20113;-59
2022/02/04 18:12:41;;;;;;;3.88;3.58;;;;;;;;;;5020344;28;20108;-59
2022/02/04 18:15:07;;;;;;;3.70;3.40;;;;;;;;;;5016870;28;20158;-59
2022/02/04 18:17:32;;;;;;;3.90;3.60;;;;;;;;;;5017128;28;20029;-60
2022/02/04 18:19:58;;;;;;;3.38;3.08;;;;;;;;;;5017285;28;20053;-60
2022/02/04 18:22:23;;;;;;;3.20;2.90;;;;;;;;;;5022297;28;20029;-60
2022/02/04 18:24:49;;;;;;;3.42;3.13;;;;;;;;;;5021169;28;20033;-60
2022/02/04 18:27:15;;;;;;;3.67;3.38;;;;;;;;;;5017888;28;20912;-59
2022/02/04 18:29:45;;;;;;;3.53;3.22;;;;;;;;;;5021006;28;20075;-58
2022/02/04 18:32:11;;;;;;;3.47;3.17;;;;;;;;;;5019724;28;20048;-61
2022/02/04 18:34:37;;;;;;;3.88;3.55;;;;;;;;;;5019948;28;20256;-59
2022/02/04 18:37:04;;;;;;;3.22;2.92;;;;;;;;;;5014820;28;20032;-59
2022/02/04 18:39:50;;;;;;;3.65;3.35;;;;;;;;;;5019081;28;20799;-61
2022/02/04 18:42:56;;;;;;;4.03;3.72;;;;;;;;;;5020400;28;20044;-60
2022/02/04 18:45:21;;;;;;;3.45;3.15;;;;;;;;;;5020537;28;20542;-59
2022/02/04 18:48:05;;;;;;;3.95;3.60;;;;;;;;;;5017262;28;20061;-59
2022/02/04 18:50:46;;;;;;;3.55;3.25;;;;;;;;;;5018349;28;20041;-60
2022/02/04 18:53:30;;;;;;;3.47;3.17;;;;;;;;;;5015175;28;20038;-59
2022/02/04 18:58:26;;;;;;;3.50;3.20;;;;;;;;;;5019668;28;20033;-60
2022/02/04 19:00:54;;;;;;;3.40;3.10;;;;;;;;;;5015536;28;20496;-59
2022/02/04 19:03:25;;;;;;;3.20;2.90;;;;;;;;;;5016412;28;20065;-59
2022/02/04 19:08:28;;;;;;;3.88;3.58;;;;;;;;;;5016971;28;20037;-60
2022/02/04 19:10:53;;;;;;;3.35;3.03;;;;;;;;;;5017750;28;20069;-60
2022/02/04 19:13:23;;;;;;;3.40;3.10;;;;;;;;;;5018005;28;20489;-60
2022/02/04 19:16:04;;;;;;;4.25;3.58;;;;;;;;;;5016587;28;20630;-60
2022/02/04 19:18:45;;;;;;;3.97;3.67;;;;;;;;;;5016972;28;20448;-61
2022/02/04 19:21:14;;;;;;;3.85;3.55;;;;;;;;;;5019945;28;20045;-61
2022/02/04 19:23:48;;;;;;;3.65;3.35;;;;;;;;;;5020112;28;20041;-61
2022/02/04 19:26:18;;;;;;;3.95;3.65;;;;;;;;;;5018793;28;20034;-60
2022/02/04 19:28:43;;;;;;;3.70;3.40;;;;;;;;;;5020581;28;20026;-59
2022/02/04 19:31:09;;;;;;;3.53;3.22;;;;;;;;;;5015761;28;20619;-59
2022/02/04 19:33:36;;;;;;;3.47;3.17;;;;;;;;;;5017184;28;20041;-58
2022/02/04 19:36:02;;;;;;;4.03;3.63;;;;;;;;;;5019588;28;20038;-58
2022/02/04 19:38:28;;;;;;;3.97;3.67;;;;;;;;;;5018336;28;20025;-60
2022/02/04 19:40:54;;;;;;;3.75;3.45;;;;;;;;;;5017584;28;20029;-60
2022/02/04 19:43:22;;;;;;;4.07;3.78;;;;;;;;;;5019817;28;20522;-59
2022/02/04 19:45:52;;;;;;;3.72;3.40;;;;;;;;;;5020174;28;20029;-59
2022/02/04 19:48:26;;;;;;;3.75;3.45;;;;;;;;;;5016811;28;20037;-60
2022/02/04 20:07:31;;;;;;;3.38;3.08;;;;;;;;;;5015170;28;20041;-61
2022/02/04 20:25:39;;;;;;;3.88;3.58;;;;;;;;;;5018806;28;20405;-61
2022/02/04 20:28:10;;;;;;;3.55;3.25;;;;;;;;;;5018382;28;20083;-61
2022/02/04 20:30:36;;;;;;;3.58;3.28;;;;;;;;;;5017899;28;20095;-59
2022/02/04 20:33:01;;;;;;;3.58;3.28;;;;;;;;;;5020406;28;20034;-59
2022/02/04 20:35:27;;;;;;;3.90;3.50;;;;;;;;;;5017772;28;20359;-59
2022/02/04 20:37:53;;;;;;;3.72;3.42;;;;;;;;;;5016576;28;20037;-60
2022/02/04 20:40:27;;;;;;;3.58;3.28;;;;;;;;;;5019216;28;20370;-60
2022/02/04 20:42:53;;;;;;;3.55;3.25;;;;;;;;;;5017517;28;20080;-60
2022/02/04 20:45:18;;;;;;;3.20;2.90;;;;;;;;;;5016747;28;20029;-60
2022/02/04 20:47:46;;;;;;;4.60;4.10;;;;;;;;;;5018695;28;20037;-59
2022/02/04 20:50:13;;;;;;;4.03;3.65;;;;;;;;;;5015326;28;20041;-61
2022/02/04 20:52:38;;;;;;;3.40;3.10;;;;;;;;;;5014388;28;20025;-60
2022/02/04 20:55:07;;;;;;;3.63;3.33;;;;;;;;;;5017104;28;20038;-59
2022/02/04 20:57:33;;;;;;;3.75;3.45;;;;;;;;;;5018741;28;20041;-59
2022/02/04 20:59:59;;;;;;;3.70;3.40;;;;;;;;;;5017596;28;20094;-60
2022/02/04 21:02:25;;;;;;;4.07;3.78;;;;;;;;;;5019024;28;20030;-59
2022/02/04 21:04:51;;;;;;;3.58;3.28;;;;;;;;;;5021883;28;20113;-59
2022/02/04 21:07:26;;;;;;;4.75;4.35;;;;;;;;;;5017850;28;20113;-59
2022/02/04 21:13:45;;;;;;;4.05;3.67;;;;;;;;;;5019568;28;20029;-60
2022/02/04 21:15:32;;;;;;;3.58;3.28;;;;;;;;;;5022543;28;20093;-60
2022/02/04 21:18:02;;;;;;;4.07;3.67;;;;;;;;;;5020958;28;20494;-59
2022/02/04 21:20:28;;;;;;;3.35;3.05;;;;;;;;;;5021310;28;20192;-59
2022/02/04 21:22:53;;;;;;;4.00;3.70;;;;;;;;;;5021034;28;20062;-59
2022/02/04 21:25:19;;;;;;;3.67;3.38;;;;;;;;;;5021518;28;20040;-59
2022/02/04 21:27:48;;;;;;;4.22;3.92;;;;;;;;;;5022011;28;20072;-59
2022/02/04 21:30:14;;;;;;;4.32;3.92;;;;;;;;;;5019385;28;20410;-59
2022/02/04 21:32:45;;;;;;;3.75;3.33;;;;;;;;;;5019865;28;20041;-59
2022/02/04 21:37:55;;;;;;;3.70;3.40;;;;;;;;;;5022462;28;20562;-59
2022/02/04 21:40:21;;;;;;;3.75;3.45;;;;;;;;;;5024273;28;20045;-59
2022/02/04 21:42:48;;;;;;;3.25;2.95;;;;;;;;;;5020146;28;20379;-59
2022/02/04 21:45:13;;;;;;;3.25;2.95;;;;;;;;;;5022095;28;20061;-59
2022/02/04 21:47:51;;;;;;;3.92;3.63;;;;;;;;;;5020394;28;20065;-59
2022/02/04 21:50:18;;;;;;;3.55;3.25;;;;;;;;;;5024638;28;20066;-59
2022/02/04 21:52:44;;;;;;;4.05;3.65;;;;;;;;;;5021124;28;20044;-59
2022/02/04 21:55:10;;;;;;;3.75;3.45;;;;;;;;;;5020422;28;20117;-59
2022/02/04 21:57:35;;;;;;;3.95;3.60;;;;;;;;;;5021600;28;20148;-59